Time;durP1;ratioP1;P1;durP2;ratioP2;P2;SDS_P1;SDS_P2;PMS_P1;PMS_P2;Temp;Humidity;BMP_temperature;BMP_pressure;BME280_temperature;BME280_humidity;BME280_pressure;Samples;Min_cycle;Max_cycle;Signal;HPM_P1;HPM_P2
2023/08/22 00:00:27;;;;;;;473.83;260.80;;;;;;;;;;7331213;19;140299;-87
2023/08/22 00:02:55;;;;;;;476.67;264.98;;;;;;;;;;7327348;19;140362;-88
2023/08/22 00:05:23;;;;;;;500.25;273.88;;;;;;;;;;7336901;19;143510;-86
2023/08/22 00:07:50;;;;;;;429.33;235.98;;;;;;;;;;7326044;19;140392;-89
2023/08/22 00:10:17;;;;;;;444.13;243.52;;;;;;;;;;7306400;19;140683;-89
2023/08/22 00:12:45;;;;;;;457.00;253.43;;;;;;;;;;7309016;19;140989;-88
2023/08/22 00:15:12;;;;;;;430.33;234.38;;;;;;;;;;7308615;19;142046;-88
2023/08/22 00:17:40;;;;;;;452.80;252.60;;;;;;;;;;7306503;19;140916;-88
2023/08/22 00:20:08;;;;;;;457.90;258.50;;;;;;;;;;7307361;19;140545;-89
2023/08/22 00:22:36;;;;;;;460.90;258.60;;;;;;;;;;7306311;19;141783;-89
2023/08/22 00:25:12;;;;;;;463.73;252.85;;;;;;;;;;7304553;19;142308;-88
2023/08/22 00:27:39;;;;;;;457.45;251.15;;;;;;;;;;7304446;19;140497;-89
2023/08/22 00:30:07;;;;;;;460.13;251.65;;;;;;;;;;7305908;19;140518;-88
2023/08/22 00:32:35;;;;;;;454.95;249.15;;;;;;;;;;7305468;19;141873;-89
2023/08/22 00:35:02;;;;;;;454.65;248.55;;;;;;;;;;7306150;19;142546;-88
2023/08/22 00:37:29;;;;;;;469.60;260.17;;;;;;;;;;7305909;19;140558;-89
2023/08/22 00:40:00;;;;;;;478.50;267.88;;;;;;;;;;7305404;19;141379;-88
2023/08/22 00:42:27;;;;;;;474.08;266.00;;;;;;;;;;7304965;19;141087;-88
2023/08/22 00:44:54;;;;;;;466.95;258.63;;;;;;;;;;7305482;19;141822;-88
2023/08/22 00:47:22;;;;;;;463.63;263.42;;;;;;;;;;7303787;19;140802;-89
2023/08/22 00:49:49;;;;;;;469.55;266.50;;;;;;;;;;7304152;19;140508;-88
2023/08/22 00:52:16;;;;;;;473.95;261.45;;;;;;;;;;7304443;19;141147;-89
2023/08/22 00:54:44;;;;;;;474.50;264.90;;;;;;;;;;7304523;19;142400;-88
2023/08/22 00:57:11;;;;;;;485.95;267.33;;;;;;;;;;7304687;19;140617;-88
2023/08/22 00:59:38;;;;;;;479.75;268.50;;;;;;;;;;7305057;19;140646;-88
2023/08/22 01:02:07;;;;;;;457.02;254.30;;;;;;;;;;7305425;19;141672;-88
2023/08/22 01:04:34;;;;;;;464.65;255.25;;;;;;;;;;7305362;19;142100;-88
2023/08/22 01:07:20;;;;;;;467.48;257.20;;;;;;;;;;7305168;19;140707;-88
2023/08/22 01:09:54;;;;;;;480.05;266.42;;;;;;;;;;7304784;19;140441;-88
2023/08/22 01:12:21;;;;;;;489.42;274.00;;;;;;;;;;7304171;19;141497;-89
2023/08/22 01:15:05;;;;;;;514.08;289.63;;;;;;;;;;7304021;19;142119;-89
2023/08/22 01:17:33;;;;;;;552.35;305.95;;;;;;;;;;7307757;19;140170;-86
2023/08/22 01:20:00;;;;;;;591.17;330.45;;;;;;;;;;7305004;19;140522;-87
2023/08/22 01:22:27;;;;;;;585.35;328.77;;;;;;;;;;7304626;19;140770;-86
2023/08/22 01:24:54;;;;;;;583.75;327.80;;;;;;;;;;7303920;19;142126;-86
2023/08/22 01:27:25;;;;;;;595.53;336.10;;;;;;;;;;7303693;19;140861;-86
2023/08/22 01:29:52;;;;;;;;;;;;;;;;;;7304809;19;140442;-86
2023/08/22 01:32:30;;;;;;;634.97;356.63;;;;;;;;;;7303620;19;150416;-87
2023/08/22 01:35:00;;;;;;;616.88;345.48;;;;;;;;;;7303793;19;142760;-86
2023/08/22 01:37:30;;;;;;;605.60;341.95;;;;;;;;;;7301405;19;140748;-86
2023/08/22 01:39:58;;;;;;;582.78;323.02;;;;;;;;;;7304050;19;140394;-86
2023/08/22 01:42:25;;;;;;;588.63;325.58;;;;;;;;;;7302475;19;141130;-86
2023/08/22 01:44:52;;;;;;;586.78;327.30;;;;;;;;;;7303552;19;141922;-86
2023/08/22 01:47:19;;;;;;;582.05;333.10;;;;;;;;;;7303551;19;140657;-86
2023/08/22 01:49:46;;;;;;;622.45;350.25;;;;;;;;;;7303264;19;140441;-86
2023/08/22 01:52:13;;;;;;;609.28;349.45;;;;;;;;;;7302969;19;141252;-86
2023/08/22 01:54:40;;;;;;;615.00;346.35;;;;;;;;;;7303552;19;142607;-86
2023/08/22 01:57:07;;;;;;;615.90;347.60;;;;;;;;;;7302403;19;140663;-86
2023/08/22 01:59:35;;;;;;;603.10;346.05;;;;;;;;;;7303913;19;140467;-86
2023/08/22 02:02:02;;;;;;;610.60;343.20;;;;;;;;;;7304028;19;140951;-86
2023/08/22 02:04:29;;;;;;;600.47;335.13;;;;;;;;;;7302532;19;141999;-85
2023/08/22 02:06:56;;;;;;;605.17;339.40;;;;;;;;;;7298977;19;140923;-86
2023/08/22 02:09:23;;;;;;;601.50;335.50;;;;;;;;;;7302777;19;140491;-86
2023/08/22 02:11:51;;;;;;;600.05;334.38;;;;;;;;;;7301929;19;140956;-86
2023/08/22 02:14:18;;;;;;;578.67;327.35;;;;;;;;;;7302395;19;141818;-87
2023/08/22 02:16:45;;;;;;;577.40;329.10;;;;;;;;;;7302592;19;141122;-87
2023/08/22 02:19:12;;;;;;;575.58;333.42;;;;;;;;;;7301392;19;140599;-87
2023/08/22 02:21:39;;;;;;;582.78;331.95;;;;;;;;;;7302162;19;141076;-87
2023/08/22 02:24:07;;;;;;;615.45;343.70;;;;;;;;;;7299894;19;142080;-86
2023/08/22 02:26:35;;;;;;;651.67;367.48;;;;;;;;;;7302300;19;140394;-87
2023/08/22 02:29:02;;;;;;;636.25;357.17;;;;;;;;;;7301746;19;140531;-86
2023/08/22 02:31:29;;;;;;;640.78;359.95;;;;;;;;;;7301907;19;141199;-87
2023/08/22 02:33:56;;;;;;;641.72;362.80;;;;;;;;;;7301353;19;141829;-87
2023/08/22 02:36:23;;;;;;;617.63;349.48;;;;;;;;;;7302090;19;140383;-87
2023/08/22 02:38:50;;;;;;;603.05;342.52;;;;;;;;;;7301478;19;140557;-87
2023/08/22 02:41:17;;;;;;;611.53;343.13;;;;;;;;;;7301611;19;140494;-87
2023/08/22 02:43:44;;;;;;;608.70;344.42;;;;;;;;;;7301098;19;142585;-87
2023/08/22 02:46:11;;;;;;;609.78;342.05;;;;;;;;;;7301219;19;140461;-86
2023/08/22 02:48:39;;;;;;;613.85;343.98;;;;;;;;;;7301812;19;140883;-87
2023/08/22 02:51:06;;;;;;;614.70;344.05;;;;;;;;;;7301590;19;141020;-87
2023/08/22 02:53:33;;;;;;;626.00;350.55;;;;;;;;;;7301122;19;140771;-86
2023/08/22 02:56:00;;;;;;;610.67;346.27;;;;;;;;;;7302096;19;140319;-86
2023/08/22 02:58:27;;;;;;;612.80;349.35;;;;;;;;;;7300856;19;140488;-86
2023/08/22 03:00:54;;;;;;;622.45;347.85;;;;;;;;;;7301237;19;141048;-86
2023/08/22 03:03:21;;;;;;;604.60;344.55;;;;;;;;;;7301022;19;141896;-87
2023/08/22 03:05:48;;;;;;;609.75;342.90;;;;;;;;;;7300340;19;140573;-86
2023/08/22 03:08:16;;;;;;;608.00;341.20;;;;;;;;;;7299739;19;140609;-86
2023/08/22 03:10:43;;;;;;;593.88;333.73;;;;;;;;;;7300855;19;141265;-86
2023/08/22 03:13:10;;;;;;;564.60;316.98;;;;;;;;;;7300093;19;141770;-86
2023/08/22 03:15:37;;;;;;;576.90;322.40;;;;;;;;;;7300767;19;140750;-86
2023/08/22 03:18:04;;;;;;;533.00;296.33;;;;;;;;;;7302166;19;140384;-85
2023/08/22 03:20:32;;;;;;;475.98;267.75;;;;;;;;;;7307908;19;140798;-85
2023/08/22 03:23:00;;;;;;;483.73;273.52;;;;;;;;;;7308123;19;141830;-86
2023/08/22 03:25:27;;;;;;;479.10;274.33;;;;;;;;;;7308390;19;140532;-86
2023/08/22 03:27:54;;;;;;;485.88;273.42;;;;;;;;;;7307025;19;140551;-86
2023/08/22 03:30:24;;;;;;;512.03;286.90;;;;;;;;;;7309668;19;140979;-86
2023/08/22 03:32:51;;;;;;;483.85;272.38;;;;;;;;;;7310941;19;141914;-86
2023/08/22 03:35:18;;;;;;;477.70;267.35;;;;;;;;;;7321465;19;140365;-86
2023/08/22 03:37:45;;;;;;;482.55;272.77;;;;;;;;;;7340700;19;139289;-84
2023/08/22 03:40:12;;;;;;;488.58;277.85;;;;;;;;;;7340445;19;141002;-84
2023/08/22 03:42:39;;;;;;;485.85;278.83;;;;;;;;;;7337600;19;140933;-86
2023/08/22 03:45:06;;;;;;;499.55;277.65;;;;;;;;;;7340151;19;140169;-85
2023/08/22 03:47:34;;;;;;;498.60;279.27;;;;;;;;;;7337915;19;140280;-85
2023/08/22 03:50:02;;;;;;;489.52;272.20;;;;;;;;;;7310803;19;141606;-87
2023/08/22 03:52:29;;;;;;;494.17;275.42;;;;;;;;;;7309568;19;141226;-87
2023/08/22 03:54:56;;;;;;;494.80;274.63;;;;;;;;;;7308465;19;140573;-87
2023/08/22 03:57:23;;;;;;;495.20;276.80;;;;;;;;;;7307088;19;140469;-87
2023/08/22 03:59:50;;;;;;;489.40;276.13;;;;;;;;;;7307332;19;141661;-87
2023/08/22 04:02:18;;;;;;;477.95;272.42;;;;;;;;;;7306529;19;142217;-87
2023/08/22 04:04:45;;;;;;;479.30;265.05;;;;;;;;;;7306845;19;140402;-87
2023/08/22 04:07:12;;;;;;;493.20;274.33;;;;;;;;;;7306374;19;140426;-87
2023/08/22 04:09:39;;;;;;;502.85;279.48;;;;;;;;;;7306160;19;140524;-87
2023/08/22 04:12:07;;;;;;;498.23;281.50;;;;;;;;;;7306381;19;142025;-87
2023/08/22 04:14:34;;;;;;;505.65;279.95;;;;;;;;;;7306291;19;140351;-86
2023/08/22 04:17:01;;;;;;;513.72;284.98;;;;;;;;;;7305820;19;140446;-86
2023/08/22 04:19:28;;;;;;;517.08;289.30;;;;;;;;;;7306486;19;140975;-86
2023/08/22 04:21:55;;;;;;;521.53;294.67;;;;;;;;;;7306507;19;142712;-86
2023/08/22 04:24:22;;;;;;;522.85;297.88;;;;;;;;;;7306129;19;140392;-86
2023/08/22 04:26:51;;;;;;;525.88;302.27;;;;;;;;;;7306598;19;140547;-87
2023/08/22 04:29:22;;;;;;;532.17;305.60;;;;;;;;;;7304814;19;141197;-87
2023/08/22 04:31:53;;;;;;;511.40;294.45;;;;;;;;;;7304378;19;142066;-86
2023/08/22 04:34:20;;;;;;;514.20;290.45;;;;;;;;;;7305949;19;140504;-87
2023/08/22 04:36:47;;;;;;;505.25;289.00;;;;;;;;;;7304060;19;140621;-87
2023/08/22 04:39:15;;;;;;;500.25;286.40;;;;;;;;;;7304396;19;141484;-88
2023/08/22 04:41:42;;;;;;;514.72;284.98;;;;;;;;;;7305330;19;140866;-88
2023/08/22 04:44:10;;;;;;;505.52;284.70;;;;;;;;;;7304477;19;140628;-88
2023/08/22 04:46:37;;;;;;;509.45;284.13;;;;;;;;;;7306039;19;140562;-88
2023/08/22 04:49:04;;;;;;;504.55;282.85;;;;;;;;;;7305526;19;141467;-89
2023/08/22 04:51:31;;;;;;;506.60;278.85;;;;;;;;;;7305197;19;142432;-89
2023/08/22 04:53:58;;;;;;;506.58;279.13;;;;;;;;;;7305309;19;140411;-88
2023/08/22 04:56:25;;;;;;;513.80;283.88;;;;;;;;;;7305477;19;140457;-88
2023/08/22 04:58:52;;;;;;;511.65;283.42;;;;;;;;;;7303707;19;140581;-88
2023/08/22 05:01:19;;;;;;;505.10;278.77;;;;;;;;;;7305028;19;142232;-87
2023/08/22 05:03:47;;;;;;;514.72;284.58;;;;;;;;;;7305504;19;140996;-89
2023/08/22 05:06:14;;;;;;;509.02;288.77;;;;;;;;;;7304500;19;140755;-88
2023/08/22 05:08:41;;;;;;;513.78;288.73;;;;;;;;;;7303506;19;141868;-88
2023/08/22 05:11:08;;;;;;;514.25;291.38;;;;;;;;;;7304270;19;142252;-88
2023/08/22 05:13:35;;;;;;;518.00;287.80;;;;;;;;;;7303102;19;140502;-88
2023/08/22 05:16:02;;;;;;;500.98;279.75;;;;;;;;;;7305419;19;140771;-89
2023/08/22 05:18:29;;;;;;;508.13;282.67;;;;;;;;;;7304319;19;141701;-88
2023/08/22 05:20:56;;;;;;;507.75;284.13;;;;;;;;;;7303502;19;142773;-88
2023/08/22 05:23:25;;;;;;;495.55;273.63;;;;;;;;;;7304381;19;140421;-88
2023/08/22 05:25:52;;;;;;;468.05;258.42;;;;;;;;;;7303856;19;140613;-88
2023/08/22 05:28:19;;;;;;;468.38;264.10;;;;;;;;;;7302219;19;141709;-88
2023/08/22 05:30:46;;;;;;;468.27;262.13;;;;;;;;;;7304105;19;140727;-84
2023/08/22 05:33:13;;;;;;;471.15;263.70;;;;;;;;;;7303736;19;140465;-84
2023/08/22 05:35:40;;;;;;;469.50;264.00;;;;;;;;;;7303857;19;140695;-84
2023/08/22 05:38:08;;;;;;;473.30;261.05;;;;;;;;;;7303533;19;140997;-84
2023/08/22 05:40:35;;;;;;;471.60;260.05;;;;;;;;;;7303360;19;141979;-85
2023/08/22 05:43:02;;;;;;;474.10;264.83;;;;;;;;;;7303564;19;140626;-87
2023/08/22 05:45:29;;;;;;;463.95;263.40;;;;;;;;;;7303856;19;140589;-88
2023/08/22 05:47:56;;;;;;;471.23;260.48;;;;;;;;;;7303445;19;140896;-88
2023/08/22 05:50:23;;;;;;;471.25;261.75;;;;;;;;;;7303717;19;140714;-87
2023/08/22 05:52:50;;;;;;;463.52;256.67;;;;;;;;;;7304159;19;140401;-88
2023/08/22 05:55:18;;;;;;;465.92;259.17;;;;;;;;;;7303005;19;140447;-87
2023/08/22 05:57:45;;;;;;;469.98;260.45;;;;;;;;;;7302892;19;141796;-88
2023/08/22 06:00:12;;;;;;;472.45;261.38;;;;;;;;;;7302786;19;142627;-84
2023/08/22 06:02:39;;;;;;;461.70;254.13;;;;;;;;;;7302640;19;140508;-91
2023/08/22 06:05:06;;;;;;;468.23;256.85;;;;;;;;;;7302969;19;140570;-83
2023/08/22 06:07:33;;;;;;;422.17;232.23;;;;;;;;;;7302727;19;140948;-79
2023/08/22 06:10:00;;;;;;;421.85;232.82;;;;;;;;;;7301716;19;142851;-76
2023/08/22 06:12:28;;;;;;;465.67;262.88;;;;;;;;;;7301152;19;140506;-85
2023/08/22 06:14:55;;;;;;;477.42;270.98;;;;;;;;;;7301615;19;140535;-85
2023/08/22 06:17:22;;;;;;;465.38;258.48;;;;;;;;;;7302309;19;140979;-85
2023/08/22 06:19:49;;;;;;;474.13;260.77;;;;;;;;;;7302420;19;141828;-92
2023/08/22 06:22:16;;;;;;;477.35;261.58;;;;;;;;;;7302859;19;140594;-91
2023/08/22 06:24:43;;;;;;;478.08;264.52;;;;;;;;;;7304055;19;140562;-94
